Terminal Aerodrome Forecast
Issued by NWS

Home | Current Version | Previous Version | Text Only | Print | Product List | Glossary On
Versions: 1 2 3 4 5 6 7 8 9 10 11 12 13 14 15 16 17
250
FTUS43 KIWX 141720
TAFSBN
TAF
KSBN 141720Z 1418/1518 13015KT P6SM OVC080
     FM141900 13015KT 3SM -SN OVC040
     FM142100 13015KT 1 1/2SM -SN OVC015
     FM150300 15008KT 3SM -SN BR SCT010 OVC020
     FM151200 18008KT 5SM BR OVC015=

USA.gov is the U.S. government's official web portal to all federal, state and local government web resources and services.